createdAt,value
2017-12-19T00:00:48.537Z,100199.42
2017-12-19T00:03:16.845Z,100198.69
2017-12-19T00:05:45.112Z,100197.77
2017-12-19T00:08:13.419Z,100190.47
2017-12-19T00:10:42.012Z,100182.77
2017-12-19T00:13:10.424Z,100185.80
2017-12-19T00:15:38.711Z,100180.68
2017-12-19T00:18:07.016Z,100187.41
2017-12-19T00:20:35.302Z,100183.63
2017-12-19T00:23:04.041Z,100196.07
2017-12-19T00:25:32.328Z,100193.74
2017-12-19T00:28:00.610Z,100199.34
2017-12-19T00:30:28.900Z,100205.84
2017-12-19T00:32:57.204Z,100206.47
2017-12-19T00:35:25.482Z,100206.75
2017-12-19T00:37:53.771Z,100208.50
2017-12-19T00:40:22.418Z,100207.52
2017-12-19T00:42:50.627Z,100212.48
2017-12-19T00:45:18.927Z,100226.10
2017-12-19T00:47:47.212Z,100232.08
2017-12-19T00:50:15.606Z,100239.23
2017-12-19T00:52:43.830Z,100239.92
2017-12-19T00:55:12.130Z,100249.14
2017-12-19T00:57:40.424Z,100248.53
2017-12-19T01:00:08.956Z,100273.55
2017-12-19T01:02:37.231Z,100274.84
2017-12-19T01:05:05.657Z,100269.20
2017-12-19T01:07:33.932Z,100277.72
2017-12-19T01:10:02.210Z,100269.12
2017-12-19T01:12:30.496Z,100265.35
2017-12-19T01:14:58.771Z,100261.08
2017-12-19T01:17:27.063Z,100266.45
2017-12-19T01:19:55.339Z,100243.28
2017-12-19T01:22:23.653Z,100257.19
2017-12-19T01:24:51.930Z,100269.55
2017-12-19T01:27:20.232Z,100274.86
2017-12-19T01:29:48.494Z,100278.69
2017-12-19T01:32:17.194Z,100280.55
2017-12-19T01:34:45.436Z,100289.34
2017-12-19T01:37:13.735Z,100295.53
2017-12-19T01:39:42.023Z,100297.67
2017-12-19T01:42:10.296Z,100300.75
2017-12-19T01:44:39.598Z,100308.89
2017-12-19T01:47:07.872Z,100308.28
2017-12-19T01:49:36.228Z,100305.57
2017-12-19T01:52:04.505Z,100313.88
2017-12-19T01:54:32.817Z,100304.30
2017-12-19T01:57:01.104Z,100293.67
2017-12-19T01:59:29.560Z,100292.38
2017-12-19T02:01:57.858Z,100304.07
2017-12-19T02:04:26.148Z,100306.88
2017-12-19T02:06:54.431Z,100310.53
2017-12-19T02:09:22.729Z,100323.42
2017-12-19T02:11:51.038Z,100322.93
2017-12-19T02:14:19.303Z,100331.59
2017-12-19T02:16:47.608Z,100331.17
2017-12-19T02:19:15.884Z,100331.09
2017-12-19T02:21:44.187Z,100324.14
2017-12-19T02:24:12.455Z,100350.39
2017-12-19T02:26:40.772Z,100339.92
2017-12-19T02:29:09.037Z,100337.31
2017-12-19T02:31:37.342Z,100349.40
2017-12-19T02:34:05.619Z,100356.64
2017-12-19T02:36:34.226Z,100354.02
2017-12-19T02:39:02.503Z,100347.81
2017-12-19T02:41:30.822Z,100343.41
2017-12-19T02:43:59.116Z,100355.13
2017-12-19T02:46:27.419Z,100355.55
2017-12-19T02:48:55.709Z,100378.74
2017-12-19T02:51:23.976Z,100380.89
2017-12-19T02:53:52.267Z,100377.98
2017-12-19T02:56:20.538Z,100366.56
2017-12-19T02:58:48.849Z,100355.80
2017-12-19T03:01:17.127Z,100342.20
2017-12-19T03:03:45.456Z,100349.58
2017-12-19T03:06:13.748Z,100351.49
2017-12-19T03:08:41.982Z,100357.49
2017-12-19T03:11:10.283Z,100350.61
2017-12-19T03:13:38.539Z,100368.91
2017-12-19T03:16:06.940Z,100366.03
2017-12-19T03:18:35.205Z,100380.69
2017-12-19T03:21:03.489Z,100374.48
2017-12-19T03:23:31.972Z,100376.22
2017-12-19T03:26:00.279Z,100376.13
2017-12-19T03:28:28.549Z,100377.23
2017-12-19T03:30:56.882Z,100376.25
2017-12-19T03:33:25.161Z,100381.59
2017-12-19T03:35:53.438Z,100377.94
2017-12-19T03:38:21.751Z,100374.29
2017-12-19T03:40:50.107Z,100370.19
2017-12-19T03:43:18.377Z,100361.73
2017-12-19T03:45:46.659Z,100371.23
2017-12-19T03:48:14.960Z,100372.37
2017-12-19T03:50:43.220Z,100364.91
2017-12-19T03:53:11.515Z,100377.67
2017-12-19T03:55:39.851Z,100378.09
2017-12-19T03:58:08.162Z,100381.17
2017-12-19T04:00:36.467Z,100382.94
2017-12-19T04:03:05.299Z,100372.56
2017-12-19T04:05:33.589Z,100377.16
2017-12-19T04:08:01.868Z,100376.47
2017-12-19T04:10:30.318Z,100379.58
2017-12-19T04:12:58.547Z,100392.50
2017-12-19T04:15:26.867Z,100392.51
2017-12-19T04:17:55.138Z,100398.14
2017-12-19T04:20:23.422Z,100400.03
2017-12-19T04:22:51.737Z,100401.80
2017-12-19T04:25:20.020Z,100403.34
2017-12-19T04:27:48.376Z,100377.56
2017-12-19T04:30:16.612Z,100405.03
2017-12-19T04:32:44.924Z,100412.82
2017-12-19T04:35:13.187Z,100408.57
2017-12-19T04:37:41.487Z,100423.03
2017-12-19T04:40:09.778Z,100433.51
2017-12-19T04:42:38.116Z,100421.83
2017-12-19T04:45:06.397Z,100426.63
2017-12-19T04:47:34.693Z,100435.30
2017-12-19T04:50:02.957Z,100436.13
2017-12-19T04:52:31.233Z,100436.38
2017-12-19T04:54:59.527Z,100445.80
2017-12-19T04:57:27.798Z,100443.25
2017-12-19T04:59:56.105Z,100450.66
2017-12-19T05:02:24.375Z,100441.59
2017-12-19T05:04:52.671Z,100461.80
2017-12-19T05:07:20.938Z,100463.98
2017-12-19T05:09:49.251Z,100456.11
2017-12-19T05:12:17.552Z,100462.60
2017-12-19T05:14:45.852Z,100460.18
2017-12-19T05:17:14.133Z,100452.12
2017-12-19T05:19:42.401Z,100457.43
2017-12-19T05:22:10.704Z,100460.30
2017-12-19T05:24:39.034Z,100461.84
2017-12-19T05:27:07.340Z,100460.06
2017-12-19T05:29:35.618Z,100469.10
2017-12-19T05:32:03.914Z,100468.69
2017-12-19T05:34:32.221Z,100473.98
2017-12-19T05:37:00.508Z,100488.90
2017-12-19T05:39:28.801Z,100489.04
2017-12-19T05:41:57.104Z,100479.35
2017-12-19T05:44:25.392Z,100474.55
2017-12-19T05:46:53.704Z,100474.45
2017-12-19T05:49:22.008Z,100478.45
2017-12-19T05:51:50.279Z,100491.25
2017-12-19T05:54:18.580Z,100486.20
2017-12-19T05:56:46.847Z,100495.44
2017-12-19T05:59:15.159Z,100494.58
2017-12-19T06:01:43.426Z,100501.65
2017-12-19T06:04:11.739Z,100499.52
2017-12-19T06:06:40.055Z,100488.86
2017-12-19T06:09:08.311Z,100502.77
2017-12-19T06:11:36.601Z,100490.61
2017-12-19T06:14:04.868Z,100488.08
2017-12-19T06:16:33.159Z,100505.80
2017-12-19T06:19:01.431Z,100511.50
2017-12-19T06:21:29.719Z,100519.34
2017-12-19T06:23:58.100Z,100533.20
2017-12-19T06:26:26.396Z,100521.05
2017-12-19T06:28:54.660Z,100536.67
2017-12-19T06:31:22.966Z,100539.88
2017-12-19T06:33:51.260Z,100544.22
2017-12-19T06:36:19.864Z,100544.52
2017-12-19T06:38:48.175Z,100547.48
2017-12-19T06:41:16.447Z,100545.77
2017-12-19T06:43:44.754Z,100549.64
2017-12-19T06:46:13.015Z,100549.78
2017-12-19T06:48:41.335Z,100550.48
2017-12-19T06:51:09.618Z,100557.06
2017-12-19T06:53:37.911Z,100552.88
2017-12-19T06:56:06.189Z,100560.30
2017-12-19T06:58:34.491Z,100562.72
2017-12-19T07:01:02.824Z,100556.19
2017-12-19T07:03:31.129Z,100558.01
2017-12-19T07:05:59.391Z,100550.95
2017-12-19T07:08:27.663Z,100558.47
2017-12-19T07:10:55.985Z,100557.11
2017-12-19T07:13:24.284Z,100554.34
2017-12-19T07:15:52.586Z,100560.76
2017-12-19T07:18:20.860Z,100561.34
2017-12-19T07:20:49.148Z,100562.17
2017-12-19T07:23:17.428Z,100566.86
2017-12-19T07:25:45.781Z,100538.77
2017-12-19T07:28:14.056Z,100567.80
2017-12-19T07:30:42.372Z,100558.02
2017-12-19T07:33:10.696Z,100577.97
2017-12-19T07:35:38.990Z,100571.30
2017-12-19T07:38:07.300Z,100580.03
2017-12-19T07:40:35.560Z,100587.49
2017-12-19T07:43:03.849Z,100584.48
2017-12-19T07:45:32.116Z,100582.00
2017-12-19T07:48:00.439Z,100587.32
2017-12-19T07:50:28.744Z,100584.34
2017-12-19T07:52:57.011Z,100596.39
2017-12-19T07:55:25.288Z,100593.40
2017-12-19T07:57:53.583Z,100601.22
2017-12-19T08:00:21.875Z,100599.91
2017-12-19T08:02:50.196Z,100606.56
2017-12-19T08:05:18.512Z,100614.41
2017-12-19T08:07:46.784Z,100590.38
2017-12-19T08:10:15.070Z,100608.04
2017-12-19T08:12:43.367Z,100606.79
2017-12-19T08:15:11.660Z,100610.97
2017-12-19T08:17:39.939Z,100603.66
2017-12-19T08:20:08.236Z,100611.78
2017-12-19T08:22:36.509Z,100601.94
2017-12-19T08:25:04.816Z,100612.59
2017-12-19T08:27:33.166Z,100614.05
2017-12-19T08:30:01.441Z,100632.66
2017-12-19T08:32:29.789Z,100621.09
2017-12-19T08:34:58.051Z,100637.09
2017-12-19T08:37:26.390Z,100638.49
2017-12-19T08:39:54.691Z,100650.47
2017-12-19T08:42:22.972Z,100652.31
2017-12-19T08:44:51.243Z,100641.17
2017-12-19T08:47:19.554Z,100634.42
2017-12-19T08:49:49.055Z,100627.55
2017-12-19T08:52:17.383Z,100633.52
2017-12-19T08:54:45.661Z,100638.53
2017-12-19T08:57:13.965Z,100644.34
2017-12-19T08:59:42.254Z,100646.05
2017-12-19T09:02:10.860Z,100655.51
2017-12-19T09:04:39.123Z,100648.92
2017-12-19T09:07:07.409Z,100650.53
2017-12-19T09:09:35.756Z,100656.78
2017-12-19T09:12:03.994Z,100669.44
2017-12-19T09:14:32.658Z,100666.61
2017-12-19T09:17:00.955Z,100659.38
2017-12-19T09:19:29.778Z,100670.26
2017-12-19T09:21:58.055Z,100670.32
2017-12-19T09:24:26.356Z,100683.93
2017-12-19T09:26:54.636Z,100688.63
2017-12-19T09:29:22.943Z,100693.32
2017-12-19T09:31:51.223Z,100693.27
2017-12-19T09:34:19.659Z,100689.36
2017-12-19T09:36:47.899Z,100683.45
2017-12-19T09:39:16.192Z,100678.19
2017-12-19T09:41:44.655Z,100684.91
2017-12-19T09:44:12.919Z,100687.03
2017-12-19T09:46:41.232Z,100703.05
2017-12-19T09:49:09.594Z,100674.93
2017-12-19T09:51:37.880Z,100700.05
2017-12-19T09:54:06.195Z,100699.16
2017-12-19T09:56:34.525Z,100707.87
2017-12-19T09:59:02.887Z,100699.56
2017-12-19T10:01:31.183Z,100704.79
2017-12-19T10:03:59.766Z,100705.79
2017-12-19T10:06:28.087Z,100705.73
2017-12-19T10:08:56.436Z,100696.70
2017-12-19T10:11:24.789Z,100704.61
2017-12-19T10:13:53.131Z,100712.14
2017-12-19T10:16:21.439Z,100717.92
2017-12-19T10:18:49.790Z,100725.35
2017-12-19T10:21:18.047Z,100722.05
2017-12-19T10:23:46.465Z,100733.50
2017-12-19T10:26:14.754Z,100719.87
2017-12-19T10:28:43.075Z,100722.13
2017-12-19T10:31:11.392Z,100729.36
2017-12-19T10:33:39.832Z,100727.09
2017-12-19T10:36:08.087Z,100727.94
2017-12-19T10:38:36.496Z,100720.98
2017-12-19T10:41:05.792Z,100710.53
2017-12-19T10:43:34.163Z,100720.38
2017-12-19T10:46:02.434Z,100717.73
2017-12-19T10:48:30.731Z,100707.47
2017-12-19T10:50:59.035Z,100709.87
2017-12-19T10:53:27.320Z,100705.92
2017-12-19T10:55:55.676Z,100708.19
2017-12-19T10:58:24.026Z,100717.27
2017-12-19T11:00:52.343Z,100715.90
2017-12-19T11:03:20.627Z,100721.39
2017-12-19T11:05:48.928Z,100716.98
2017-12-19T11:08:17.194Z,100715.77
2017-12-19T11:10:45.541Z,100721.00
2017-12-19T11:13:13.847Z,100716.75
2017-12-19T11:15:42.320Z,100723.45
2017-12-19T11:18:10.676Z,100726.92
2017-12-19T11:20:39.078Z,100728.78
2017-12-19T11:23:07.315Z,100721.99
2017-12-19T11:25:35.772Z,100721.70
2017-12-19T11:28:04.073Z,100717.24
2017-12-19T11:30:32.343Z,100725.53
2017-12-19T11:33:00.655Z,100726.91
2017-12-19T11:35:28.967Z,100726.55
2017-12-19T11:37:57.263Z,100734.81
2017-12-19T11:40:25.536Z,100733.91
2017-12-19T11:42:53.834Z,100728.57
2017-12-19T11:45:22.100Z,100715.64
2017-12-19T11:47:50.414Z,100718.69
2017-12-19T11:50:18.736Z,100718.34
2017-12-19T11:52:47.070Z,100719.51
2017-12-19T11:55:15.339Z,100706.70
2017-12-19T11:57:43.623Z,100711.95
2017-12-19T12:00:12.603Z,100701.16
2017-12-19T12:02:40.987Z,100696.43
2017-12-19T12:05:09.602Z,100689.60
2017-12-19T12:07:37.887Z,100703.54
2017-12-19T12:10:06.228Z,100693.67
2017-12-19T12:12:35.080Z,100683.66
2017-12-19T12:15:03.436Z,100693.39
2017-12-19T12:17:31.712Z,100689.88
2017-12-19T12:20:00.007Z,100684.76
2017-12-19T12:22:28.278Z,100689.78
2017-12-19T12:24:56.563Z,100688.28
2017-12-19T12:27:24.885Z,100685.19
2017-12-19T12:29:53.181Z,100683.45
2017-12-19T12:32:21.492Z,100680.50
2017-12-19T12:34:49.763Z,100668.48
2017-12-19T12:37:18.062Z,100683.99
2017-12-19T12:39:46.867Z,100686.76
2017-12-19T12:42:15.219Z,100681.65
2017-12-19T12:44:43.518Z,100673.25
2017-12-19T12:47:11.812Z,100661.92
2017-12-19T12:49:40.125Z,100668.80
2017-12-19T12:52:08.555Z,100670.95
2017-12-19T12:54:36.868Z,100669.98
2017-12-19T12:57:05.238Z,100668.11
2017-12-19T12:59:33.522Z,100672.08
2017-12-19T13:02:02.815Z,100666.05
2017-12-19T13:04:31.227Z,100656.38
2017-12-19T13:06:59.487Z,100665.00
2017-12-19T13:09:27.815Z,100682.99
2017-12-19T13:11:56.074Z,100682.47
2017-12-19T13:14:24.376Z,100689.65
2017-12-19T13:16:52.671Z,100691.09
2017-12-19T13:19:21.010Z,100689.61
2017-12-19T13:21:49.300Z,100687.36
2017-12-19T13:24:17.639Z,100685.15
2017-12-19T13:26:45.940Z,100680.13
2017-12-19T13:29:14.278Z,100689.72
2017-12-19T13:31:42.569Z,100685.94
2017-12-19T13:34:11.088Z,100688.19
2017-12-19T13:36:39.392Z,100685.44
2017-12-19T13:39:07.699Z,100685.84
2017-12-19T13:41:36.089Z,100691.94
2017-12-19T13:44:04.356Z,100684.92
2017-12-19T13:46:32.669Z,100683.61
2017-12-19T13:49:00.926Z,100665.66
2017-12-19T13:51:29.247Z,100682.77
2017-12-19T13:53:57.540Z,100682.22
2017-12-19T13:56:25.845Z,100677.48
2017-12-19T13:58:54.125Z,100663.06
2017-12-19T14:01:22.445Z,100685.45
2017-12-19T14:03:50.779Z,100682.70
2017-12-19T14:06:19.071Z,100686.28
2017-12-19T14:08:47.376Z,100686.17
2017-12-19T14:11:15.663Z,100695.72
2017-12-19T14:13:43.964Z,100686.59
2017-12-19T14:16:12.247Z,100690.94
2017-12-19T14:18:40.556Z,100696.78
2017-12-19T14:21:08.833Z,100693.67
2017-12-19T14:23:37.203Z,100685.27
2017-12-19T14:26:05.504Z,100695.87
2017-12-19T14:28:33.839Z,100693.72
2017-12-19T14:31:02.127Z,100700.48
2017-12-19T14:33:30.788Z,100695.88
2017-12-19T14:35:59.052Z,100693.84
2017-12-19T14:38:27.365Z,100689.50
2017-12-19T14:40:55.652Z,100675.75
2017-12-19T14:43:23.924Z,100692.55
2017-12-19T14:45:52.227Z,100677.30
2017-12-19T14:48:20.515Z,100688.31
2017-12-19T14:50:48.813Z,100680.20
2017-12-19T14:53:17.097Z,100682.09
2017-12-19T14:55:45.386Z,100687.50
2017-12-19T14:58:13.690Z,100684.61
2017-12-19T15:00:42.143Z,100666.73
2017-12-19T15:03:10.420Z,100676.39
2017-12-19T15:05:38.742Z,100679.19
2017-12-19T15:08:07.067Z,100677.66
2017-12-19T15:10:35.391Z,100675.72
2017-12-19T15:13:04.488Z,100683.48
2017-12-19T15:15:33.074Z,100677.46
2017-12-19T15:18:01.349Z,100679.91
2017-12-19T15:20:29.608Z,100662.45
2017-12-19T15:22:57.934Z,100669.07
2017-12-19T15:25:26.224Z,100673.30
2017-12-19T15:27:54.518Z,100680.81
2017-12-19T15:30:22.835Z,100674.95
2017-12-19T15:32:51.227Z,100670.72
2017-12-19T15:35:19.520Z,100678.80
2017-12-19T15:37:47.864Z,100675.03
2017-12-19T15:40:16.177Z,100675.16
2017-12-19T15:42:44.493Z,100664.48
2017-12-19T15:45:12.903Z,100669.03
2017-12-19T15:47:41.179Z,100668.69
2017-12-19T15:50:09.474Z,100671.55
2017-12-19T15:52:38.451Z,100671.59
2017-12-19T15:55:06.780Z,100672.10
2017-12-19T15:57:35.058Z,100668.20
2017-12-19T16:00:03.358Z,100669.30
2017-12-19T16:02:31.667Z,100656.12
2017-12-19T16:05:01.532Z,100657.87
2017-12-19T16:07:30.470Z,100669.98
2017-12-19T16:09:58.811Z,100672.31
2017-12-19T16:12:27.078Z,100671.19
2017-12-19T16:14:55.436Z,100671.80
2017-12-19T16:17:23.844Z,100668.30
2017-12-19T16:19:52.092Z,100670.00
2017-12-19T16:22:20.413Z,100677.19
2017-12-19T16:24:48.671Z,100673.52
2017-12-19T16:27:16.976Z,100679.34
2017-12-19T16:29:45.256Z,100683.47
2017-12-19T16:32:13.568Z,100678.42
2017-12-19T16:34:41.879Z,100684.48
2017-12-19T16:37:10.956Z,100685.05
2017-12-19T16:39:39.244Z,100687.78
2017-12-19T16:42:07.570Z,100675.73
2017-12-19T16:44:36.135Z,100684.95
2017-12-19T16:47:05.240Z,100664.00
2017-12-19T16:49:33.578Z,100679.98
2017-12-19T16:52:01.822Z,100687.04
2017-12-19T16:54:30.147Z,100684.48
2017-12-19T16:56:58.417Z,100680.83
2017-12-19T16:59:26.729Z,100673.39
2017-12-19T17:01:55.009Z,100695.87
2017-12-19T17:04:23.333Z,100693.67
2017-12-19T17:06:51.840Z,100697.95
2017-12-19T17:09:20.187Z,100692.62
2017-12-19T17:11:48.436Z,100694.50
2017-12-19T17:14:16.873Z,100699.26
2017-12-19T17:16:45.155Z,100697.93
2017-12-19T17:19:13.464Z,100701.80
2017-12-19T17:21:41.764Z,100714.97
2017-12-19T17:24:10.086Z,100705.85
2017-12-19T17:26:38.379Z,100704.78
2017-12-19T17:29:06.672Z,100708.33
2017-12-19T17:31:35.037Z,100714.63
2017-12-19T17:34:03.300Z,100708.83
2017-12-19T17:36:31.599Z,100717.02
2017-12-19T17:38:59.871Z,100692.42
2017-12-19T17:41:28.222Z,100721.09
2017-12-19T17:43:56.470Z,100725.94
2017-12-19T17:46:24.756Z,100724.22
2017-12-19T17:48:53.085Z,100722.49
2017-12-19T17:51:21.358Z,100698.68
2017-12-19T17:53:49.658Z,100727.17
2017-12-19T17:56:17.936Z,100721.70
2017-12-19T17:58:46.239Z,100725.45
2017-12-19T18:01:14.530Z,100711.37
2017-12-19T18:03:42.831Z,100726.52
2017-12-19T18:06:11.141Z,100711.34
2017-12-19T18:08:39.422Z,100728.30
2017-12-19T18:11:07.729Z,100724.11
2017-12-19T18:13:36.005Z,100726.03
2017-12-19T18:16:04.424Z,100725.11
2017-12-19T18:18:32.699Z,100726.06
2017-12-19T18:21:01.030Z,100719.31
2017-12-19T18:23:29.325Z,100707.17
2017-12-19T18:25:57.628Z,100723.77
2017-12-19T18:28:25.936Z,100727.28
2017-12-19T18:30:54.211Z,100720.80
2017-12-19T18:33:22.554Z,100724.67
2017-12-19T18:35:50.849Z,100721.64
2017-12-19T18:38:19.099Z,100724.11
2017-12-19T18:40:47.386Z,100715.29
2017-12-19T18:43:15.695Z,100719.70
2017-12-19T18:45:43.977Z,100708.47
2017-12-19T18:48:12.266Z,100706.95
2017-12-19T18:50:40.535Z,100712.41
2017-12-19T18:53:08.892Z,100711.92
2017-12-19T18:55:38.075Z,100719.27
2017-12-19T18:58:06.400Z,100711.18
2017-12-19T19:00:34.705Z,100716.84
2017-12-19T19:03:02.988Z,100713.95
2017-12-19T19:05:32.111Z,100705.01
2017-12-19T19:08:00.403Z,100712.92
2017-12-19T19:10:28.754Z,100716.98
2017-12-19T19:12:56.992Z,100723.66
2017-12-19T19:15:25.280Z,100714.13
2017-12-19T19:17:53.548Z,100718.57
2017-12-19T19:20:21.847Z,100724.16
2017-12-19T19:22:50.135Z,100724.06
2017-12-19T19:25:18.428Z,100710.98
2017-12-19T19:27:46.704Z,100715.55
2017-12-19T19:30:15.030Z,100693.44
2017-12-19T19:32:43.306Z,100718.62
2017-12-19T19:35:11.583Z,100704.98
2017-12-19T19:37:39.859Z,100721.37
2017-12-19T19:40:08.157Z,100726.70
2017-12-19T19:42:36.441Z,100730.45
2017-12-19T19:45:04.820Z,100726.48
2017-12-19T19:47:33.096Z,100727.54
2017-12-19T19:50:02.455Z,100721.66
2017-12-19T19:52:30.723Z,100718.87
2017-12-19T19:54:59.008Z,100713.56
2017-12-19T19:57:27.308Z,100721.02
2017-12-19T19:59:55.601Z,100721.50
2017-12-19T20:02:23.902Z,100716.12
2017-12-19T20:04:52.193Z,100715.96
2017-12-19T20:07:20.468Z,100713.00
2017-12-19T20:09:48.748Z,100708.06
2017-12-19T20:12:17.041Z,100708.63
2017-12-19T20:14:45.340Z,100707.63
2017-12-19T20:17:14.444Z,100705.79
2017-12-19T20:19:42.743Z,100700.84
2017-12-19T20:22:11.036Z,100708.52
2017-12-19T20:24:39.364Z,100704.70
2017-12-19T20:27:07.652Z,100713.70
2017-12-19T20:29:35.935Z,100708.89
2017-12-19T20:32:04.397Z,100716.72
2017-12-19T20:34:32.668Z,100723.52
2017-12-19T20:37:01.169Z,100718.08
2017-12-19T20:39:29.445Z,100715.36
2017-12-19T20:41:57.735Z,100716.56
2017-12-19T20:44:26.032Z,100718.48
2017-12-19T20:46:54.353Z,100726.13
2017-12-19T20:49:22.654Z,100721.09
2017-12-19T20:51:50.936Z,100719.15
2017-12-19T20:54:19.219Z,100706.74
2017-12-19T20:56:47.498Z,100708.90
2017-12-19T20:59:15.781Z,100708.74
2017-12-19T21:01:44.039Z,100705.16
2017-12-19T21:04:12.327Z,100690.79
2017-12-19T21:06:40.604Z,100713.16
2017-12-19T21:09:08.892Z,100701.87
2017-12-19T21:11:37.158Z,100720.89
2017-12-19T21:14:05.452Z,100720.78
2017-12-19T21:16:33.794Z,100726.16
2017-12-19T21:19:02.062Z,100714.91
2017-12-19T21:21:30.336Z,100708.97
2017-12-19T21:23:58.603Z,100709.94
2017-12-19T21:26:26.891Z,100710.09
2017-12-19T21:28:55.173Z,100713.39
2017-12-19T21:31:23.468Z,100710.39
2017-12-19T21:33:51.725Z,100714.96
2017-12-19T21:36:20.033Z,100713.39
2017-12-19T21:38:48.300Z,100707.50
2017-12-19T21:41:16.620Z,100710.91
2017-12-19T21:43:44.922Z,100717.65
2017-12-19T21:46:13.248Z,100700.27
2017-12-19T21:48:41.502Z,100690.87
2017-12-19T21:51:09.839Z,100690.21
2017-12-19T21:53:38.132Z,100707.36
2017-12-19T21:56:06.407Z,100700.97
2017-12-19T21:58:34.700Z,100693.26
2017-12-19T22:01:02.982Z,100694.19
2017-12-19T22:03:32.141Z,100695.44
2017-12-19T22:06:00.435Z,100697.39
2017-12-19T22:08:28.725Z,100702.97
2017-12-19T22:10:57.062Z,100701.44
2017-12-19T22:13:25.308Z,100698.95
2017-12-19T22:15:53.589Z,100696.66
2017-12-19T22:18:22.021Z,100676.03
2017-12-19T22:20:50.291Z,100662.84
2017-12-19T22:23:18.565Z,100672.80
2017-12-19T22:25:46.847Z,100677.27
2017-12-19T22:28:15.187Z,100667.19
2017-12-19T22:30:43.511Z,100645.83
2017-12-19T22:33:11.780Z,100650.97
2017-12-19T22:35:40.056Z,100656.97
2017-12-19T22:38:08.326Z,100660.93
2017-12-19T22:40:36.658Z,100656.14
2017-12-19T22:43:05.162Z,100652.53
2017-12-19T22:45:33.479Z,100643.63
2017-12-19T22:48:01.762Z,100643.42
2017-12-19T22:50:30.007Z,100648.22
2017-12-19T22:52:58.415Z,100646.30
2017-12-19T22:55:26.695Z,100646.55
2017-12-19T22:57:54.974Z,100649.30
2017-12-19T23:00:23.261Z,100646.55
2017-12-19T23:02:51.550Z,100643.59
2017-12-19T23:05:19.806Z,100650.36
2017-12-19T23:07:48.924Z,100655.31
2017-12-19T23:10:17.201Z,100664.09
2017-12-19T23:12:45.476Z,100659.54
2017-12-19T23:15:13.770Z,100652.97
2017-12-19T23:17:42.012Z,100669.91
2017-12-19T23:20:10.298Z,100670.57
2017-12-19T23:22:38.559Z,100666.27
2017-12-19T23:25:06.857Z,100676.11
2017-12-19T23:27:35.111Z,100678.28
2017-12-19T23:30:03.413Z,100678.23
2017-12-19T23:32:31.672Z,100668.08
2017-12-19T23:34:59.965Z,100670.99
2017-12-19T23:37:28.224Z,100667.09
2017-12-19T23:39:56.516Z,100664.18
2017-12-19T23:42:24.843Z,100657.30
2017-12-19T23:44:53.082Z,100661.84
2017-12-19T23:47:21.335Z,100657.09
2017-12-19T23:49:49.642Z,100644.66
2017-12-19T23:52:17.929Z,100648.80
2017-12-19T23:54:46.492Z,100641.98
2017-12-19T23:57:14.769Z,100643.59
2017-12-19T23:59:43.026Z,100635.63
